sensor_id;sensor_type;location;lat;lon;timestamp;pressure;altitude;pressure_sealevel;temperature;humidity
3428;BME280;1727;42.624;23.406;2023-04-21T00:00:49;94474.06;;;11.55;83.26
3428;BME280;1727;42.624;23.406;2023-04-21T00:03:17;94477.66;;;11.54;83.09
3428;BME280;1727;42.624;23.406;2023-04-21T00:05:46;94468.56;;;11.48;83.28
3428;BME280;1727;42.624;23.406;2023-04-21T00:08:13;94465.84;;;11.40;83.63
3428;BME280;1727;42.624;23.406;2023-04-21T00:10:40;94467.03;;;11.28;83.59
3428;BME280;1727;42.624;23.406;2023-04-21T00:13:07;94468.69;;;11.29;84.19
3428;BME280;1727;42.624;23.406;2023-04-21T00:15:35;94457.34;;;11.29;83.80
3428;BME280;1727;42.624;23.406;2023-04-21T00:21:23;94466.19;;;11.28;84.34
3428;BME280;1727;42.624;23.406;2023-04-21T00:23:51;94466.44;;;11.25;83.96
3428;BME280;1727;42.624;23.406;2023-04-21T00:26:18;94465.09;;;11.21;82.95
3428;BME280;1727;42.624;23.406;2023-04-21T00:28:45;94467.03;;;11.18;83.32
3428;BME280;1727;42.624;23.406;2023-04-21T00:31:13;94459.34;;;11.07;84.72
3428;BME280;1727;42.624;23.406;2023-04-21T00:33:40;94465.88;;;11.03;84.76
3428;BME280;1727;42.624;23.406;2023-04-21T00:36:07;94466.16;;;11.00;83.98
3428;BME280;1727;42.624;23.406;2023-04-21T00:38:34;94466.41;;;10.97;83.83
3428;BME280;1727;42.624;23.406;2023-04-21T00:41:00;94472.25;;;10.91;83.55
3428;BME280;1727;42.624;23.406;2023-04-21T00:43:28;94464.50;;;10.90;83.47
3428;BME280;1727;42.624;23.406;2023-04-21T00:45:54;94463.13;;;10.85;84.18
3428;BME280;1727;42.624;23.406;2023-04-21T00:48:23;94465.22;;;10.82;84.92
3428;BME280;1727;42.624;23.406;2023-04-21T00:50:50;94463.84;;;10.78;84.75
3428;BME280;1727;42.624;23.406;2023-04-21T00:53:18;94459.19;;;10.62;84.47
3428;BME280;1727;42.624;23.406;2023-04-21T00:55:46;94457.38;;;10.63;84.88
3428;BME280;1727;42.624;23.406;2023-04-21T00:58:13;94452.00;;;10.64;85.33
3428;BME280;1727;42.624;23.406;2023-04-21T01:00:39;94456.69;;;10.61;83.88
3428;BME280;1727;42.624;23.406;2023-04-21T01:03:10;94453.53;;;10.57;84.70
3428;BME280;1727;42.624;23.406;2023-04-21T01:05:38;94460.31;;;10.50;85.15
3428;BME280;1727;42.624;23.406;2023-04-21T01:08:05;94454.53;;;10.46;84.61
3428;BME280;1727;42.624;23.406;2023-04-21T01:10:33;94451.91;;;10.46;85.28
3428;BME280;1727;42.624;23.406;2023-04-21T01:12:59;94447.63;;;10.45;85.43
3428;BME280;1727;42.624;23.406;2023-04-21T01:15:26;94455.78;;;10.42;85.13
3428;BME280;1727;42.624;23.406;2023-04-21T01:17:55;94453.41;;;10.39;85.55
3428;BME280;1727;42.624;23.406;2023-04-21T01:20:22;94453.69;;;10.36;85.36
3428;BME280;1727;42.624;23.406;2023-04-21T01:22:50;94447.91;;;10.33;84.28
3428;BME280;1727;42.624;23.406;2023-04-21T01:25:17;94450.38;;;10.34;85.45
3428;BME280;1727;42.624;23.406;2023-04-21T01:27:46;94444.59;;;10.31;85.86
3428;BME280;1727;42.624;23.406;2023-04-21T01:30:13;94447.34;;;10.29;84.84
3428;BME280;1727;42.624;23.406;2023-04-21T01:32:40;94447.03;;;10.03;86.11
3428;BME280;1727;42.624;23.406;2023-04-21T01:35:07;94452.84;;;10.07;86.37
3428;BME280;1727;42.624;23.406;2023-04-21T01:37:34;94445.25;;;10.04;86.53
3428;BME280;1727;42.624;23.406;2023-04-21T01:40:05;94456.97;;;10.09;87.20
3428;BME280;1727;42.624;23.406;2023-04-21T01:42:35;94450.75;;;10.10;86.29
3428;BME280;1727;42.624;23.406;2023-04-21T01:45:03;94449.81;;;10.11;86.37
3428;BME280;1727;42.624;23.406;2023-04-21T01:47:30;94450.63;;;10.12;85.37
3428;BME280;1727;42.624;23.406;2023-04-21T01:49:57;94437.66;;;10.10;86.15
3428;BME280;1727;42.624;23.406;2023-04-21T01:52:24;94437.53;;;10.12;85.64
3428;BME280;1727;42.624;23.406;2023-04-21T01:54:50;94442.50;;;10.15;85.27
3428;BME280;1727;42.624;23.406;2023-04-21T01:57:19;94445.28;;;10.13;85.31
3428;BME280;1727;42.624;23.406;2023-04-21T02:06:29;94442.38;;;9.87;83.60
3428;BME280;1727;42.624;23.406;2023-04-21T02:08:57;94452.03;;;9.87;84.04
3428;BME280;1727;42.624;23.406;2023-04-21T02:11:24;94441.50;;;9.77;84.55
3428;BME280;1727;42.624;23.406;2023-04-21T02:13:53;94443.16;;;9.78;84.39
3428;BME280;1727;42.624;23.406;2023-04-21T02:16:20;94442.19;;;9.79;86.19
3428;BME280;1727;42.624;23.406;2023-04-21T02:18:50;94435.31;;;9.78;84.81
3428;BME280;1727;42.624;23.406;2023-04-21T02:21:18;94433.13;;;9.83;85.54
3428;BME280;1727;42.624;23.406;2023-04-21T02:23:45;94435.19;;;9.89;84.62
3428;BME280;1727;42.624;23.406;2023-04-21T02:26:12;94438.50;;;9.91;84.59
3428;BME280;1727;42.624;23.406;2023-04-21T02:28:39;94435.47;;;9.96;83.67
3428;BME280;1727;42.624;23.406;2023-04-21T02:31:07;94434.63;;;9.96;83.77
3428;BME280;1727;42.624;23.406;2023-04-21T02:33:34;94434.63;;;10.05;83.97
3428;BME280;1727;42.624;23.406;2023-04-21T02:36:01;94439.44;;;10.10;82.90
3428;BME280;1727;42.624;23.406;2023-04-21T02:38:28;94441.25;;;10.09;82.67
3428;BME280;1727;42.624;23.406;2023-04-21T02:40:55;94441.66;;;10.05;82.44
3428;BME280;1727;42.624;23.406;2023-04-21T02:43:22;94436.97;;;9.99;82.77
3428;BME280;1727;42.624;23.406;2023-04-21T02:45:49;94437.41;;;9.94;82.83
3428;BME280;1727;42.624;23.406;2023-04-21T02:48:17;94441.22;;;9.80;82.04
3428;BME280;1727;42.624;23.406;2023-04-21T02:50:47;94437.78;;;9.70;83.07
3428;BME280;1727;42.624;23.406;2023-04-21T02:53:14;94436.81;;;9.71;83.34
3428;BME280;1727;42.624;23.406;2023-04-21T02:55:41;94428.28;;;9.69;83.82
3428;BME280;1727;42.624;23.406;2023-04-21T02:58:07;94442.34;;;9.78;83.83
3428;BME280;1727;42.624;23.406;2023-04-21T03:00:34;94446.19;;;9.74;83.34
3428;BME280;1727;42.624;23.406;2023-04-21T03:03:01;94440.66;;;9.57;84.16
3428;BME280;1727;42.624;23.406;2023-04-21T03:05:30;94439.94;;;9.36;84.50
3428;BME280;1727;42.624;23.406;2023-04-21T03:07:56;94445.97;;;9.27;84.83
3428;BME280;1727;42.624;23.406;2023-04-21T03:10:23;94439.19;;;9.24;86.24
3428;BME280;1727;42.624;23.406;2023-04-21T03:12:50;94444.63;;;9.02;87.68
3428;BME280;1727;42.624;23.406;2023-04-21T03:15:18;94439.41;;;9.02;88.67
3428;BME280;1727;42.624;23.406;2023-04-21T03:17:45;94450.47;;;9.15;89.53
3428;BME280;1727;42.624;23.406;2023-04-21T03:20:12;94444.81;;;9.20;89.11
3428;BME280;1727;42.624;23.406;2023-04-21T03:22:40;94448.41;;;9.19;88.85
3428;BME280;1727;42.624;23.406;2023-04-21T03:25:07;94444.69;;;9.21;89.40
3428;BME280;1727;42.624;23.406;2023-04-21T03:27:34;94452.91;;;9.07;90.57
3428;BME280;1727;42.624;23.406;2023-04-21T03:30:00;94458.72;;;9.11;91.23
3428;BME280;1727;42.624;23.406;2023-04-21T03:32:27;94459.41;;;9.13;90.52
3428;BME280;1727;42.624;23.406;2023-04-21T03:34:54;94460.78;;;9.17;90.93
3428;BME280;1727;42.624;23.406;2023-04-21T03:37:21;94461.47;;;9.09;92.17
3428;BME280;1727;42.624;23.406;2023-04-21T03:39:49;94457.47;;;9.15;91.84
3428;BME280;1727;42.624;23.406;2023-04-21T03:42:15;94461.50;;;9.19;92.33
3428;BME280;1727;42.624;23.406;2023-04-21T03:44:42;94460.25;;;9.23;92.06
3428;BME280;1727;42.624;23.406;2023-04-21T03:47:09;94464.16;;;9.28;92.19
3428;BME280;1727;42.624;23.406;2023-04-21T03:49:36;94460.03;;;9.36;91.83
3428;BME280;1727;42.624;23.406;2023-04-21T03:52:03;94463.78;;;9.43;92.11
3428;BME280;1727;42.624;23.406;2023-04-21T03:54:30;94466.13;;;9.46;92.55
3428;BME280;1727;42.624;23.406;2023-04-21T03:56:58;94475.63;;;9.37;91.59
3428;BME280;1727;42.624;23.406;2023-04-21T03:59:25;94467.50;;;9.40;92.33
3428;BME280;1727;42.624;23.406;2023-04-21T04:01:51;94466.69;;;9.49;92.37
3428;BME280;1727;42.624;23.406;2023-04-21T04:04:18;94463.84;;;9.62;91.41
3428;BME280;1727;42.624;23.406;2023-04-21T04:06:45;94476.38;;;9.68;91.26
3428;BME280;1727;42.624;23.406;2023-04-21T04:09:12;94473.78;;;9.78;90.93
3428;BME280;1727;42.624;23.406;2023-04-21T04:11:38;94481.22;;;9.82;91.89
3428;BME280;1727;42.624;23.406;2023-04-21T04:14:07;94481.13;;;9.93;92.58
3428;BME280;1727;42.624;23.406;2023-04-21T04:16:33;94484.31;;;10.16;91.24
3428;BME280;1727;42.624;23.406;2023-04-21T04:19:00;94489.31;;;10.48;89.52
3428;BME280;1727;42.624;23.406;2023-04-21T04:21:28;94490.25;;;10.67;87.27
3428;BME280;1727;42.624;23.406;2023-04-21T04:23:55;94500.53;;;10.97;85.71
3428;BME280;1727;42.624;23.406;2023-04-21T04:26:23;94499.56;;;11.45;84.79
3428;BME280;1727;42.624;23.406;2023-04-21T04:28:51;94502.28;;;12.08;81.44
3428;BME280;1727;42.624;23.406;2023-04-21T04:31:22;94502.34;;;12.69;78.42
3428;BME280;1727;42.624;23.406;2023-04-21T04:33:49;94505.03;;;13.81;85.90
3428;BME280;1727;42.624;23.406;2023-04-21T04:36:16;94515.41;;;14.33;72.46
3428;BME280;1727;42.624;23.406;2023-04-21T04:38:43;94515.34;;;14.83;68.87
3428;BME280;1727;42.624;23.406;2023-04-21T04:41:10;94512.69;;;14.92;67.29
3428;BME280;1727;42.624;23.406;2023-04-21T04:43:38;94520.09;;;14.72;67.05
3428;BME280;1727;42.624;23.406;2023-04-21T04:46:06;94531.06;;;14.26;67.67
3428;BME280;1727;42.624;23.406;2023-04-21T04:48:34;94519.13;;;14.06;69.09
3428;BME280;1727;42.624;23.406;2023-04-21T04:51:01;94527.63;;;13.84;69.92
3428;BME280;1727;42.624;23.406;2023-04-21T04:53:28;94521.88;;;13.54;71.88
3428;BME280;1727;42.624;23.406;2023-04-21T04:55:55;94521.53;;;13.49;72.04
3428;BME280;1727;42.624;23.406;2023-04-21T04:58:23;94516.84;;;13.35;72.56
3428;BME280;1727;42.624;23.406;2023-04-21T05:00:49;94518.31;;;13.12;73.79
3428;BME280;1727;42.624;23.406;2023-04-21T05:03:16;94517.94;;;12.81;75.20
3428;BME280;1727;42.624;23.406;2023-04-21T05:05:44;94521.47;;;12.71;75.43
3428;BME280;1727;42.624;23.406;2023-04-21T05:08:11;94523.66;;;12.58;77.22
3428;BME280;1727;42.624;23.406;2023-04-21T05:10:38;94515.19;;;12.47;77.94
3428;BME280;1727;42.624;23.406;2023-04-21T05:13:05;94513.19;;;12.13;79.24
3428;BME280;1727;42.624;23.406;2023-04-21T05:15:32;94521.63;;;12.17;79.79
3428;BME280;1727;42.624;23.406;2023-04-21T05:17:58;94522.19;;;12.10;80.59
3428;BME280;1727;42.624;23.406;2023-04-21T05:20:25;94517.50;;;12.32;81.21
3428;BME280;1727;42.624;23.406;2023-04-21T05:22:53;94520.50;;;12.55;80.22
3428;BME280;1727;42.624;23.406;2023-04-21T05:25:20;94517.50;;;12.50;80.09
3428;BME280;1727;42.624;23.406;2023-04-21T05:27:47;94517.63;;;12.66;80.48
3428;BME280;1727;42.624;23.406;2023-04-21T05:30:14;94521.91;;;12.67;78.84
3428;BME280;1727;42.624;23.406;2023-04-21T05:32:41;94533.31;;;12.50;78.58
3428;BME280;1727;42.624;23.406;2023-04-21T05:35:07;94523.88;;;12.29;79.50
3428;BME280;1727;42.624;23.406;2023-04-21T05:37:35;94525.31;;;12.41;81.48
3428;BME280;1727;42.624;23.406;2023-04-21T05:40:03;94521.25;;;12.65;79.09
3428;BME280;1727;42.624;23.406;2023-04-21T05:42:30;94527.38;;;12.91;79.17
3428;BME280;1727;42.624;23.406;2023-04-21T05:44:57;94527.31;;;13.01;77.71
3428;BME280;1727;42.624;23.406;2023-04-21T05:47:24;94528.06;;;12.93;78.01
3428;BME280;1727;42.624;23.406;2023-04-21T05:49:50;94521.03;;;13.20;77.17
3428;BME280;1727;42.624;23.406;2023-04-21T05:52:18;94520.50;;;13.16;76.24
3428;BME280;1727;42.624;23.406;2023-04-21T05:54:45;94513.88;;;13.12;76.02
3428;BME280;1727;42.624;23.406;2023-04-21T05:57:13;94516.63;;;13.54;75.72
3428;BME280;1727;42.624;23.406;2023-04-21T05:59:41;94519.72;;;13.84;75.31
3428;BME280;1727;42.624;23.406;2023-04-21T06:02:08;94511.41;;;14.13;73.35
3428;BME280;1727;42.624;23.406;2023-04-21T06:04:34;94505.03;;;14.40;73.26
3428;BME280;1727;42.624;23.406;2023-04-21T06:07:04;94509.69;;;15.03;69.79
3428;BME280;1727;42.624;23.406;2023-04-21T06:09:31;94518.09;;;15.31;67.55
3428;BME280;1727;42.624;23.406;2023-04-21T06:11:58;94516.16;;;14.84;68.18
3428;BME280;1727;42.624;23.406;2023-04-21T06:14:28;94513.16;;;15.28;68.78
3428;BME280;1727;42.624;23.406;2023-04-21T06:16:55;94512.66;;;15.96;68.01
3428;BME280;1727;42.624;23.406;2023-04-21T06:19:21;94516.38;;;16.71;67.68
3428;BME280;1727;42.624;23.406;2023-04-21T06:21:48;94522.91;;;17.44;62.97
3428;BME280;1727;42.624;23.406;2023-04-21T06:24:15;94513.72;;;17.99;59.64
3428;BME280;1727;42.624;23.406;2023-04-21T06:26:49;94506.22;;;18.39;56.58
3428;BME280;1727;42.624;23.406;2023-04-21T06:29:16;94510.78;;;18.45;55.13
3428;BME280;1727;42.624;23.406;2023-04-21T06:31:44;94499.59;;;18.64;55.38
3428;BME280;1727;42.624;23.406;2023-04-21T06:34:11;94495.56;;;18.53;55.26
3428;BME280;1727;42.624;23.406;2023-04-21T06:36:38;94496.28;;;18.47;54.82
3428;BME280;1727;42.624;23.406;2023-04-21T06:39:05;94496.91;;;18.28;55.57
3428;BME280;1727;42.624;23.406;2023-04-21T06:41:32;94499.25;;;18.02;56.21
3428;BME280;1727;42.624;23.406;2023-04-21T06:43:59;94501.78;;;17.51;58.34
3428;BME280;1727;42.624;23.406;2023-04-21T06:46:25;94490.44;;;17.04;57.35
3428;BME280;1727;42.624;23.406;2023-04-21T06:48:53;94491.25;;;16.90;58.87
3428;BME280;1727;42.624;23.406;2023-04-21T06:51:20;94478.97;;;17.12;61.98
3428;BME280;1727;42.624;23.406;2023-04-21T06:53:47;94497.22;;;17.45;57.86
3428;BME280;1727;42.624;23.406;2023-04-21T06:56:14;94492.34;;;17.48;57.09
3428;BME280;1727;42.624;23.406;2023-04-21T06:58:41;94492.44;;;17.55;56.47
3428;BME280;1727;42.624;23.406;2023-04-21T07:01:07;94492.28;;;17.42;57.20
3428;BME280;1727;42.624;23.406;2023-04-21T07:03:34;94477.00;;;18.03;63.97
3428;BME280;1727;42.624;23.406;2023-04-21T07:06:03;94476.44;;;18.22;55.06
3428;BME280;1727;42.624;23.406;2023-04-21T07:08:30;94487.81;;;18.37;55.82
3428;BME280;1727;42.624;23.406;2023-04-21T07:10:56;94488.03;;;18.21;54.61
3428;BME280;1727;42.624;23.406;2023-04-21T07:13:23;94495.34;;;18.19;56.91
3428;BME280;1727;42.624;23.406;2023-04-21T07:15:50;94491.72;;;17.90;55.11
3428;BME280;1727;42.624;23.406;2023-04-21T07:18:17;94490.38;;;17.80;55.97
3428;BME280;1727;42.624;23.406;2023-04-21T07:20:44;94492.59;;;17.76;56.02
3428;BME280;1727;42.624;23.406;2023-04-21T07:23:12;94488.19;;;17.83;55.18
3428;BME280;1727;42.624;23.406;2023-04-21T07:25:39;94494.00;;;18.08;55.69
3428;BME280;1727;42.624;23.406;2023-04-21T07:28:06;94492.28;;;17.86;55.44
3428;BME280;1727;42.624;23.406;2023-04-21T07:30:33;94495.38;;;17.60;56.66
3428;BME280;1727;42.624;23.406;2023-04-21T07:32:59;94490.34;;;17.50;56.84
3428;BME280;1727;42.624;23.406;2023-04-21T07:35:26;94487.97;;;17.41;56.55
3428;BME280;1727;42.624;23.406;2023-04-21T07:37:53;94488.00;;;17.70;59.28
3428;BME280;1727;42.624;23.406;2023-04-21T07:40:21;94472.63;;;17.95;56.22
3428;BME280;1727;42.624;23.406;2023-04-21T07:42:48;94474.09;;;18.34;56.11
3428;BME280;1727;42.624;23.406;2023-04-21T07:45:15;94483.88;;;18.69;53.73
3428;BME280;1727;42.624;23.406;2023-04-21T07:47:42;94489.16;;;18.63;55.38
3428;BME280;1727;42.624;23.406;2023-04-21T07:50:10;94489.63;;;18.51;53.39
3428;BME280;1727;42.624;23.406;2023-04-21T07:52:37;94486.78;;;18.53;53.39
3428;BME280;1727;42.624;23.406;2023-04-21T07:55:04;94490.31;;;18.60;53.04
3428;BME280;1727;42.624;23.406;2023-04-21T07:57:33;94488.38;;;18.69;53.38
3428;BME280;1727;42.624;23.406;2023-04-21T08:00:04;94493.66;;;18.83;52.99
3428;BME280;1727;42.624;23.406;2023-04-21T08:02:31;94491.19;;;18.82;52.57
3428;BME280;1727;42.624;23.406;2023-04-21T08:04:58;94492.16;;;19.02;52.85
3428;BME280;1727;42.624;23.406;2023-04-21T08:07:24;94494.19;;;19.00;52.58
3428;BME280;1727;42.624;23.406;2023-04-21T08:09:51;94493.56;;;18.77;52.75
3428;BME280;1727;42.624;23.406;2023-04-21T08:12:18;94495.00;;;18.58;52.03
3428;BME280;1727;42.624;23.406;2023-04-21T08:14:46;94488.00;;;18.93;52.13
3428;BME280;1727;42.624;23.406;2023-04-21T08:17:13;94476.00;;;19.25;53.66
3428;BME280;1727;42.624;23.406;2023-04-21T08:19:40;94480.03;;;19.70;50.05
3428;BME280;1727;42.624;23.406;2023-04-21T08:22:06;94474.94;;;20.23;51.30
3428;BME280;1727;42.624;23.406;2023-04-21T08:24:33;94471.78;;;20.48;48.27
3428;BME280;1727;42.624;23.406;2023-04-21T08:27:00;94472.91;;;20.25;47.63
3428;BME280;1727;42.624;23.406;2023-04-21T08:29:27;94471.53;;;19.95;48.80
3428;BME280;1727;42.624;23.406;2023-04-21T08:31:56;94469.66;;;19.89;49.97
3428;BME280;1727;42.624;23.406;2023-04-21T08:34:23;94476.34;;;19.71;49.77
3428;BME280;1727;42.624;23.406;2023-04-21T08:36:50;94474.84;;;19.62;50.42
3428;BME280;1727;42.624;23.406;2023-04-21T08:39:16;94481.78;;;19.57;48.93
3428;BME280;1727;42.624;23.406;2023-04-21T08:41:43;94476.53;;;19.42;51.36
3428;BME280;1727;42.624;23.406;2023-04-21T08:44:10;94478.75;;;19.10;52.47
3428;BME280;1727;42.624;23.406;2023-04-21T08:46:37;94469.78;;;18.90;51.10
3428;BME280;1727;42.624;23.406;2023-04-21T08:49:08;94469.69;;;19.05;52.64
3428;BME280;1727;42.624;23.406;2023-04-21T08:51:35;94462.03;;;19.16;53.73
3428;BME280;1727;42.624;23.406;2023-04-21T08:54:02;94467.59;;;19.00;51.25
3428;BME280;1727;42.624;23.406;2023-04-21T08:56:29;94469.78;;;18.90;52.12
3428;BME280;1727;42.624;23.406;2023-04-21T08:58:55;94468.75;;;18.70;51.88
3428;BME280;1727;42.624;23.406;2023-04-21T09:01:22;94456.53;;;18.54;53.39
3428;BME280;1727;42.624;23.406;2023-04-21T09:03:49;94456.78;;;18.59;56.41
3428;BME280;1727;42.624;23.406;2023-04-21T09:06:17;94455.84;;;18.88;54.64
3428;BME280;1727;42.624;23.406;2023-04-21T09:08:52;94451.78;;;18.92;51.85
3428;BME280;1727;42.624;23.406;2023-04-21T09:11:20;94447.19;;;19.07;55.26
3428;BME280;1727;42.624;23.406;2023-04-21T09:13:47;94448.88;;;19.08;51.51
3428;BME280;1727;42.624;23.406;2023-04-21T09:16:15;94427.22;;;19.11;51.29
3428;BME280;1727;42.624;23.406;2023-04-21T09:18:43;94433.38;;;19.18;50.19
3428;BME280;1727;42.624;23.406;2023-04-21T09:21:11;94432.22;;;19.28;51.11
3428;BME280;1727;42.624;23.406;2023-04-21T09:23:43;94438.19;;;19.64;51.18
3428;BME280;1727;42.624;23.406;2023-04-21T09:26:11;94433.28;;;19.61;49.41
3428;BME280;1727;42.624;23.406;2023-04-21T09:28:41;94432.22;;;19.28;49.55
3428;BME280;1727;42.624;23.406;2023-04-21T09:31:13;94421.72;;;18.92;50.71
3428;BME280;1727;42.624;23.406;2023-04-21T09:33:47;94428.91;;;18.70;51.74
3428;BME280;1727;42.624;23.406;2023-04-21T09:36:18;94424.25;;;18.57;50.82
3428;BME280;1727;42.624;23.406;2023-04-21T09:38:54;94425.66;;;18.53;52.48
3428;BME280;1727;42.624;23.406;2023-04-21T09:41:22;94426.28;;;18.55;51.75
3428;BME280;1727;42.624;23.406;2023-04-21T09:43:49;94427.63;;;18.66;60.32
3428;BME280;1727;42.624;23.406;2023-04-21T09:46:17;94424.25;;;18.57;52.28
3428;BME280;1727;42.624;23.406;2023-04-21T09:48:46;94420.59;;;18.58;55.94
3428;BME280;1727;42.624;23.406;2023-04-21T09:51:14;94423.00;;;18.53;50.66
3428;BME280;1727;42.624;23.406;2023-04-21T09:53:43;94418.19;;;18.42;50.39
3428;BME280;1727;42.624;23.406;2023-04-21T09:56:13;94416.91;;;18.38;50.67
3428;BME280;1727;42.624;23.406;2023-04-21T09:58:45;94408.00;;;18.45;54.62
3428;BME280;1727;42.624;23.406;2023-04-21T10:01:12;94411.41;;;18.61;49.21
3428;BME280;1727;42.624;23.406;2023-04-21T10:03:40;94408.41;;;18.64;48.96
3428;BME280;1727;42.624;23.406;2023-04-21T10:06:07;94408.88;;;18.74;49.02
3428;BME280;1727;42.624;23.406;2023-04-21T10:08:34;94407.75;;;18.83;48.55
3428;BME280;1727;42.624;23.406;2023-04-21T10:11:03;94400.88;;;18.95;47.64
3428;BME280;1727;42.624;23.406;2023-04-21T10:13:32;94392.31;;;18.50;48.82
3428;BME280;1727;42.624;23.406;2023-04-21T10:16:03;94397.38;;;18.24;50.64
3428;BME280;1727;42.624;23.406;2023-04-21T10:18:34;94400.69;;;18.11;51.46
3428;BME280;1727;42.624;23.406;2023-04-21T10:21:03;94405.44;;;17.94;50.62
3428;BME280;1727;42.624;23.406;2023-04-21T10:23:35;94399.06;;;17.74;51.67
3428;BME280;1727;42.624;23.406;2023-04-21T10:26:09;94394.84;;;17.65;51.43
3428;BME280;1727;42.624;23.406;2023-04-21T10:28:51;94393.94;;;17.73;52.10
3428;BME280;1727;42.624;23.406;2023-04-21T10:31:24;94380.78;;;18.01;51.68
3428;BME280;1727;42.624;23.406;2023-04-21T10:34:16;94382.25;;;18.24;51.14
3428;BME280;1727;42.624;23.406;2023-04-21T10:37:10;94387.69;;;18.38;52.76
3428;BME280;1727;42.624;23.406;2023-04-21T10:39:53;94387.56;;;18.24;53.14
3428;BME280;1727;42.624;23.406;2023-04-21T10:42:28;94393.06;;;18.02;53.40
3428;BME280;1727;42.624;23.406;2023-04-21T10:45:12;94391.91;;;17.75;53.42
3428;BME280;1727;42.624;23.406;2023-04-21T10:47:46;94398.25;;;17.74;55.75
3428;BME280;1727;42.624;23.406;2023-04-21T10:50:17;94395.19;;;17.62;54.42
3428;BME280;1727;42.624;23.406;2023-04-21T10:52:56;94388.16;;;17.54;55.36
3428;BME280;1727;42.624;23.406;2023-04-21T10:55:28;94393.19;;;17.49;57.22
3428;BME280;1727;42.624;23.406;2023-04-21T10:57:55;94392.38;;;17.49;56.83
3428;BME280;1727;42.624;23.406;2023-04-21T11:00:25;94388.88;;;17.63;57.46
3428;BME280;1727;42.624;23.406;2023-04-21T11:02:59;94396.66;;;17.79;56.17
3428;BME280;1727;42.624;23.406;2023-04-21T11:05:31;94390.16;;;17.82;53.94
3428;BME280;1727;42.624;23.406;2023-04-21T11:08:08;94385.84;;;17.81;54.55
3428;BME280;1727;42.624;23.406;2023-04-21T11:10:51;94392.94;;;17.74;54.08
3428;BME280;1727;42.624;23.406;2023-04-21T11:13:23;94391.03;;;17.68;55.97
3428;BME280;1727;42.624;23.406;2023-04-21T11:16:03;94390.22;;;17.88;62.12
3428;BME280;1727;42.624;23.406;2023-04-21T11:18:36;94388.00;;;17.92;60.30
3428;BME280;1727;42.624;23.406;2023-04-21T11:21:12;94383.69;;;18.06;60.69
3428;BME280;1727;42.624;23.406;2023-04-21T11:23:47;94383.63;;;18.20;56.67
3428;BME280;1727;42.624;23.406;2023-04-21T11:26:14;94388.00;;;18.28;52.70
3428;BME280;1727;42.624;23.406;2023-04-21T11:28:41;94384.78;;;18.33;51.73
3428;BME280;1727;42.624;23.406;2023-04-21T11:31:09;94389.22;;;18.25;52.31
3428;BME280;1727;42.624;23.406;2023-04-21T11:33:37;94391.97;;;17.96;54.33
3428;BME280;1727;42.624;23.406;2023-04-21T11:36:05;94399.50;;;17.78;55.00
3428;BME280;1727;42.624;23.406;2023-04-21T11:38:38;94402.91;;;17.42;55.71
3428;BME280;1727;42.624;23.406;2023-04-21T11:41:05;94393.03;;;17.36;56.62
3428;BME280;1727;42.624;23.406;2023-04-21T11:43:33;94390.91;;;17.46;60.05
3428;BME280;1727;42.624;23.406;2023-04-21T11:46:12;94386.41;;;17.61;57.15
3428;BME280;1727;42.624;23.406;2023-04-21T11:48:42;94375.75;;;17.70;56.81
3428;BME280;1727;42.624;23.406;2023-04-21T11:51:14;94377.00;;;17.74;55.93
3428;BME280;1727;42.624;23.406;2023-04-21T11:53:40;94379.97;;;17.85;55.53
3428;BME280;1727;42.624;23.406;2023-04-21T11:56:08;94380.63;;;17.87;55.17
3428;BME280;1727;42.624;23.406;2023-04-21T11:58:37;94377.09;;;17.51;56.33
3428;BME280;1727;42.624;23.406;2023-04-21T12:01:06;94386.91;;;17.36;57.80
3428;BME280;1727;42.624;23.406;2023-04-21T12:03:35;94387.88;;;17.34;57.93
3428;BME280;1727;42.624;23.406;2023-04-21T12:06:02;94383.78;;;17.17;58.21
3428;BME280;1727;42.624;23.406;2023-04-21T12:08:28;94381.88;;;17.11;60.22
3428;BME280;1727;42.624;23.406;2023-04-21T12:10:56;94386.59;;;17.30;59.99
3428;BME280;1727;42.624;23.406;2023-04-21T12:13:23;94384.91;;;17.38;61.22
3428;BME280;1727;42.624;23.406;2023-04-21T12:16:01;94389.53;;;17.50;63.29
3428;BME280;1727;42.624;23.406;2023-04-21T12:18:30;94391.00;;;17.53;54.97
3428;BME280;1727;42.624;23.406;2023-04-21T12:21:00;94388.06;;;17.48;53.78
3428;BME280;1727;42.624;23.406;2023-04-21T12:23:27;94385.31;;;17.56;54.64
3428;BME280;1727;42.624;23.406;2023-04-21T12:25:54;94383.03;;;17.53;52.48
3428;BME280;1727;42.624;23.406;2023-04-21T12:28:21;94390.63;;;17.56;52.62
3428;BME280;1727;42.624;23.406;2023-04-21T12:30:48;94382.50;;;17.43;51.22
3428;BME280;1727;42.624;23.406;2023-04-21T12:33:15;94392.09;;;17.44;51.38
3428;BME280;1727;42.624;23.406;2023-04-21T12:35:42;94393.13;;;17.43;51.97
3428;BME280;1727;42.624;23.406;2023-04-21T12:38:10;94392.84;;;17.38;49.97
3428;BME280;1727;42.624;23.406;2023-04-21T12:40:37;94383.66;;;17.55;50.43
3428;BME280;1727;42.624;23.406;2023-04-21T12:43:04;94377.63;;;17.76;50.06
3428;BME280;1727;42.624;23.406;2023-04-21T12:45:32;94383.09;;;17.89;50.36
3428;BME280;1727;42.624;23.406;2023-04-21T12:47:58;94378.16;;;17.86;51.36
3428;BME280;1727;42.624;23.406;2023-04-21T12:50:26;94376.50;;;18.00;50.65
3428;BME280;1727;42.624;23.406;2023-04-21T12:52:54;94380.72;;;18.15;50.49
3428;BME280;1727;42.624;23.406;2023-04-21T12:55:23;94374.94;;;18.26;50.08
3428;BME280;1727;42.624;23.406;2023-04-21T12:57:50;94375.75;;;18.27;50.16
3428;BME280;1727;42.624;23.406;2023-04-21T13:00:17;94377.56;;;18.05;49.14
3428;BME280;1727;42.624;23.406;2023-04-21T13:02:44;94375.28;;;18.02;50.42
3428;BME280;1727;42.624;23.406;2023-04-21T13:05:10;94372.03;;;17.85;49.95
3428;BME280;1727;42.624;23.406;2023-04-21T13:07:38;94375.94;;;17.68;51.32
3428;BME280;1727;42.624;23.406;2023-04-21T13:10:06;94365.38;;;17.60;51.65
3428;BME280;1727;42.624;23.406;2023-04-21T13:12:34;94366.94;;;17.54;51.63
3428;BME280;1727;42.624;23.406;2023-04-21T13:15:01;94368.00;;;17.60;51.91
3428;BME280;1727;42.624;23.406;2023-04-21T13:17:28;94369.78;;;17.68;51.46
3428;BME280;1727;42.624;23.406;2023-04-21T13:19:55;94362.53;;;17.61;51.06
3428;BME280;1727;42.624;23.406;2023-04-21T13:22:22;94357.03;;;17.63;49.95
3428;BME280;1727;42.624;23.406;2023-04-21T13:24:48;94364.34;;;17.61;49.76
3428;BME280;1727;42.624;23.406;2023-04-21T13:27:15;94372.59;;;17.66;50.02